ADDS TAF Data INFO
IDs: Format: Raw Decoded Include METARs

Data at: 0754 UTC 17 Oct 2017

METAR for:KDHN (Dothan Rgnl, AL, US)
Text:KDHN 170653Z AUTO 02007KT 10SM CLR 13/10 A3016 RMK AO2 SLP211 T01330100
Temperature: 13.3°C ( 56°F)
Dewpoint: 10.0°C ( 50°F) [RH = 80%]
Pressure (altimeter):30.16 inches Hg (1021.4 mb) [Sea level pressure: 1021.1 mb]
Winds:from the NNE (20 degrees) at 8 MPH (7 knots; 3.6 m/s)
Visibility:10 or more sm (16+ km)
Ceiling:at least 12,000 feet AGL
Clouds:sky clear below 12,000 feet AGL
QC Flag:automated observation with no human augmentation

TAF for:KDHN (Dothan Rgnl, AL, US) issued at 0521 UTC 17 Oct 2017
Text:KDHN 170521Z 1706/1806 01008KT P6SM BKN250
Forecast period:0600 to 0900 UTC 17 October 2017
Forecast type:FROM: standard forecast or significant change
Winds:from the N (10 degrees) at 9 MPH (8 knots; 4.1 m/s)
Visibility:6 or more sm (10+ km)
Ceiling:25000 feet AGL
Clouds: broken clouds at 25000 feet AGL
Text:FM170900 05011G16KT P6SM FEW250
Forecast period:0900 UTC 17 October 2017 to 0600 UTC 18 October 2017
Forecast type:FROM: standard forecast or significant change
Winds:from the NE (50 degrees) at 13 MPH (11 knots; 5.7 m/s) gusting to 18 MPH (16 knots; 8.2 m/s)
Visibility:6 or more sm (10+ km)
Ceiling:at least 12,000 feet AGL
Clouds: few clouds at 25000 feet AGL